Mechanicsville, Virginia
Current Conditions -  °F | °C
As of 12:54 PM on Sunday 25 Jan 2015 (Local Time) from KOFP Reporting Station
Clear Clear  
Wind Chill: 50°   Ceiling: Unl
Heat Index: 50°   Visibility: 10mi
Dew Point: 31°   Wind: 6mph
Humidity: 48%   Direction: 160°SSE
Pressure: 29.87"   Gusts: NA
Location:  37.61°N, 77.38°W
Report Text: KOFP 251754Z AUTO 16005KT 10SM CLR 10/M01 A2987 RMK AO2 SLP114 T01001006 10100 21022 58016
Loading
Personal Weather Stations






























Interactive Weather Map New forecast layout! Learn more

10-Day Weather Forecast

Advertisements
Track Severe Weather on mobile